sensor_id;sensor_type;location;lat;lon;timestamp;pressure;altitude;pressure_sealevel;temperature;humidity
19748;BME280;10032;51.386;12.516;2024-01-25T00:01:57;100664.66;;;9.86;100.00
19748;BME280;10032;51.386;12.516;2024-01-25T00:04:23;100658.41;;;9.86;100.00
19748;BME280;10032;51.386;12.516;2024-01-25T00:06:48;100659.81;;;9.88;100.00
19748;BME280;10032;51.386;12.516;2024-01-25T00:09:13;100649.22;;;9.87;100.00
19748;BME280;10032;51.386;12.516;2024-01-25T00:11:39;100653.00;;;9.86;100.00
19748;BME280;10032;51.386;12.516;2024-01-25T00:14:04;100661.38;;;9.84;100.00
19748;BME280;10032;51.386;12.516;2024-01-25T00:16:30;100658.06;;;9.82;100.00
19748;BME280;10032;51.386;12.516;2024-01-25T00:18:55;100660.75;;;9.82;100.00
19748;BME280;10032;51.386;12.516;2024-01-25T00:21:21;100667.81;;;9.83;100.00
19748;BME280;10032;51.386;12.516;2024-01-25T00:23:46;100667.59;;;9.85;100.00
19748;BME280;10032;51.386;12.516;2024-01-25T00:26:12;100670.53;;;9.83;100.00
19748;BME280;10032;51.386;12.516;2024-01-25T00:28:38;100664.06;;;9.84;100.00
19748;BME280;10032;51.386;12.516;2024-01-25T00:31:03;100679.25;;;9.85;100.00
19748;BME280;10032;51.386;12.516;2024-01-25T00:33:29;100665.38;;;9.82;100.00
19748;BME280;10032;51.386;12.516;2024-01-25T00:35:54;100675.94;;;9.83;100.00
19748;BME280;10032;51.386;12.516;2024-01-25T00:38:20;100679.25;;;9.85;100.00
19748;BME280;10032;51.386;12.516;2024-01-25T00:40:46;100668.06;;;9.82;100.00
19748;BME280;10032;51.386;12.516;2024-01-25T00:43:12;100665.59;;;9.80;100.00
19748;BME280;10032;51.386;12.516;2024-01-25T00:45:37;100677.00;;;9.82;100.00
19748;BME280;10032;51.386;12.516;2024-01-25T00:48:03;100671.81;;;9.81;100.00
19748;BME280;10032;51.386;12.516;2024-01-25T00:50:29;100678.06;;;9.81;100.00
19748;BME280;10032;51.386;12.516;2024-01-25T00:52:55;100679.69;;;9.82;100.00
19748;BME280;10032;51.386;12.516;2024-01-25T00:55:21;100670.53;;;9.83;100.00
19748;BME280;10032;51.386;12.516;2024-01-25T00:57:46;100666.53;;;9.86;100.00
19748;BME280;10032;51.386;12.516;2024-01-25T01:00:12;100666.78;;;9.84;100.00
19748;BME280;10032;51.386;12.516;2024-01-25T01:02:45;100668.44;;;9.85;100.00
19748;BME280;10032;51.386;12.516;2024-01-25T01:05:11;100671.13;;;9.85;100.00
19748;BME280;10032;51.386;12.516;2024-01-25T01:07:38;100674.91;;;9.84;100.00
19748;BME280;10032;51.386;12.516;2024-01-25T01:10:06;100670.16;;;9.80;100.00
19748;BME280;10032;51.386;12.516;2024-01-25T01:12:32;100668.31;;;9.80;100.00
19748;BME280;10032;51.386;12.516;2024-01-25T01:14:57;100672.06;;;9.79;100.00
19748;BME280;10032;51.386;12.516;2024-01-25T01:17:23;100671.00;;;9.80;100.00
19748;BME280;10032;51.386;12.516;2024-01-25T01:19:48;100671.44;;;9.77;100.00
19748;BME280;10032;51.386;12.516;2024-01-25T01:22:14;100667.69;;;9.78;100.00
19748;BME280;10032;51.386;12.516;2024-01-25T01:24:39;100674.38;;;9.76;100.00
19748;BME280;10032;51.386;12.516;2024-01-25T01:27:04;100682.75;;;9.74;100.00
19748;BME280;10032;51.386;12.516;2024-01-25T01:29:30;100676.72;;;9.72;100.00
19748;BME280;10032;51.386;12.516;2024-01-25T01:31:55;100690.25;;;9.72;100.00
19748;BME280;10032;51.386;12.516;2024-01-25T01:34:21;100694.03;;;9.71;100.00
19748;BME280;10032;51.386;12.516;2024-01-25T01:36:46;100689.19;;;9.73;100.00
19748;BME280;10032;51.386;12.516;2024-01-25T01:39:11;100691.91;;;9.73;100.00
19748;BME280;10032;51.386;12.516;2024-01-25T01:41:37;100703.22;;;9.70;100.00
19748;BME280;10032;51.386;12.516;2024-01-25T01:44:02;100690.25;;;9.72;100.00
19748;BME280;10032;51.386;12.516;2024-01-25T01:46:35;100684.50;;;9.69;100.00
19748;BME280;10032;51.386;12.516;2024-01-25T01:49:02;100680.13;;;9.68;100.00
19748;BME280;10032;51.386;12.516;2024-01-25T01:51:30;100686.63;;;9.67;100.00
19748;BME280;10032;51.386;12.516;2024-01-25T01:53:56;100690.38;;;9.66;100.00
19748;BME280;10032;51.386;12.516;2024-01-25T01:56:24;100687.91;;;9.64;100.00
19748;BME280;10032;51.386;12.516;2024-01-25T01:58:52;100685.63;;;9.61;100.00
19748;BME280;10032;51.386;12.516;2024-01-25T02:01:19;100686.69;;;9.60;100.00
19748;BME280;10032;51.386;12.516;2024-01-25T02:03:45;100684.56;;;9.62;100.00
19748;BME280;10032;51.386;12.516;2024-01-25T02:06:10;100682.13;;;9.61;100.00
19748;BME280;10032;51.386;12.516;2024-01-25T02:08:36;100679.41;;;9.61;100.00
19748;BME280;10032;51.386;12.516;2024-01-25T02:11:02;100683.41;;;9.58;100.00
19748;BME280;10032;51.386;12.516;2024-01-25T02:13:27;100670.56;;;9.54;100.00
19748;BME280;10032;51.386;12.516;2024-01-25T02:15:53;100676.81;;;9.54;100.00
19748;BME280;10032;51.386;12.516;2024-01-25T02:18:18;100675.97;;;9.54;100.00
19748;BME280;10032;51.386;12.516;2024-01-25T02:20:44;100673.47;;;9.52;100.00
19748;BME280;10032;51.386;12.516;2024-01-25T02:23:09;100679.97;;;9.51;100.00
19748;BME280;10032;51.386;12.516;2024-01-25T02:25:34;100676.53;;;9.44;100.00
19748;BME280;10032;51.386;12.516;2024-01-25T02:28:00;100681.34;;;9.42;100.00
19748;BME280;10032;51.386;12.516;2024-01-25T02:30:25;100689.91;;;9.39;100.00
19748;BME280;10032;51.386;12.516;2024-01-25T02:32:50;100680.38;;;9.37;100.00
19748;BME280;10032;51.386;12.516;2024-01-25T02:35:16;100681.22;;;9.37;100.00
19748;BME280;10032;51.386;12.516;2024-01-25T02:37:41;100680.59;;;9.35;100.00
19748;BME280;10032;51.386;12.516;2024-01-25T02:40:07;100673.53;;;9.34;100.00
19748;BME280;10032;51.386;12.516;2024-01-25T02:42:33;100663.66;;;9.28;100.00
19748;BME280;10032;51.386;12.516;2024-01-25T02:44:58;100665.16;;;9.24;100.00
19748;BME280;10032;51.386;12.516;2024-01-25T02:47:24;100670.19;;;9.21;100.00
19748;BME280;10032;51.386;12.516;2024-01-25T02:49:49;100673.13;;;9.19;100.00
19748;BME280;10032;51.386;12.516;2024-01-25T02:52:14;100678.38;;;9.14;100.00
19748;BME280;10032;51.386;12.516;2024-01-25T02:54:40;100673.66;;;9.10;100.00
19748;BME280;10032;51.386;12.516;2024-01-25T02:57:05;100672.03;;;9.09;100.00
19748;BME280;10032;51.386;12.516;2024-01-25T02:59:31;100684.69;;;9.08;100.00
19748;BME280;10032;51.386;12.516;2024-01-25T03:01:57;100667.91;;;9.06;100.00
19748;BME280;10032;51.386;12.516;2024-01-25T03:04:22;100676.22;;;9.05;100.00
19748;BME280;10032;51.386;12.516;2024-01-25T03:06:48;100676.66;;;9.02;100.00
19748;BME280;10032;51.386;12.516;2024-01-25T03:09:14;100669.03;;;8.99;100.00
19748;BME280;10032;51.386;12.516;2024-01-25T03:11:39;100673.38;;;9.00;100.00
19748;BME280;10032;51.386;12.516;2024-01-25T03:14:04;100663.84;;;8.97;100.00
19748;BME280;10032;51.386;12.516;2024-01-25T03:16:30;100683.81;;;8.96;100.00
19748;BME280;10032;51.386;12.516;2024-01-25T03:18:55;100679.31;;;8.90;100.00
19748;BME280;10032;51.386;12.516;2024-01-25T03:21:21;100682.16;;;8.95;100.00
19748;BME280;10032;51.386;12.516;2024-01-25T03:23:46;100682.75;;;8.97;100.00
19748;BME280;10032;51.386;12.516;2024-01-25T03:26:12;100680.06;;;8.97;100.00
19748;BME280;10032;51.386;12.516;2024-01-25T03:28:37;100678.41;;;8.96;100.00
19748;BME280;10032;51.386;12.516;2024-01-25T03:31:04;100687.31;;;8.97;100.00
19748;BME280;10032;51.386;12.516;2024-01-25T03:33:30;100695.06;;;8.93;100.00
19748;BME280;10032;51.386;12.516;2024-01-25T03:36:03;100682.16;;;8.95;100.00
19748;BME280;10032;51.386;12.516;2024-01-25T03:38:29;100700.03;;;8.96;100.00
19748;BME280;10032;51.386;12.516;2024-01-25T03:40:55;100696.25;;;8.97;100.00
19748;BME280;10032;51.386;12.516;2024-01-25T03:43:22;100690.28;;;8.95;100.00
19748;BME280;10032;51.386;12.516;2024-01-25T03:45:48;100698.81;;;8.92;100.00
19748;BME280;10032;51.386;12.516;2024-01-25T03:48:14;100704.22;;;8.92;100.00
19748;BME280;10032;51.386;12.516;2024-01-25T03:50:40;100692.81;;;8.90;100.00
19748;BME280;10032;51.386;12.516;2024-01-25T03:53:05;100708.78;;;8.92;100.00
19748;BME280;10032;51.386;12.516;2024-01-25T03:55:32;100706.34;;;8.90;100.00
19748;BME280;10032;51.386;12.516;2024-01-25T03:57:57;100708.41;;;8.88;100.00
19748;BME280;10032;51.386;12.516;2024-01-25T04:00:23;100715.50;;;8.89;100.00
19748;BME280;10032;51.386;12.516;2024-01-25T04:02:48;100705.72;;;8.88;100.00
19748;BME280;10032;51.386;12.516;2024-01-25T04:05:13;100718.63;;;8.86;100.00
19748;BME280;10032;51.386;12.516;2024-01-25T04:07:40;100732.16;;;8.86;100.00
19748;BME280;10032;51.386;12.516;2024-01-25T04:10:06;100726.75;;;8.86;100.00
19748;BME280;10032;51.386;12.516;2024-01-25T04:12:31;100723.44;;;8.84;100.00
19748;BME280;10032;51.386;12.516;2024-01-25T04:14:58;100734.69;;;8.81;100.00
19748;BME280;10032;51.386;12.516;2024-01-25T04:17:24;100750.91;;;8.81;100.00
19748;BME280;10032;51.386;12.516;2024-01-25T04:19:49;100753.38;;;8.83;100.00
19748;BME280;10032;51.386;12.516;2024-01-25T04:22:14;100763.34;;;8.82;100.00
19748;BME280;10032;51.386;12.516;2024-01-25T04:24:40;100770.41;;;8.83;100.00
19748;BME280;10032;51.386;12.516;2024-01-25T04:27:06;100779.13;;;8.85;100.00
19748;BME280;10032;51.386;12.516;2024-01-25T04:29:31;100784.91;;;8.89;100.00
19748;BME280;10032;51.386;12.516;2024-01-25T04:31:56;100782.88;;;8.84;100.00
19748;BME280;10032;51.386;12.516;2024-01-25T04:34:22;100787.22;;;8.85;100.00
19748;BME280;10032;51.386;12.516;2024-01-25T04:36:47;100789.31;;;8.83;100.00
19748;BME280;10032;51.386;12.516;2024-01-25T04:39:13;100787.81;;;8.87;100.00
19748;BME280;10032;51.386;12.516;2024-01-25T04:41:38;100797.00;;;8.86;100.00
19748;BME280;10032;51.386;12.516;2024-01-25T04:44:04;100803.22;;;8.87;100.00
19748;BME280;10032;51.386;12.516;2024-01-25T04:46:29;100803.44;;;8.85;100.00
19748;BME280;10032;51.386;12.516;2024-01-25T04:49:00;100807.59;;;8.88;100.00
19748;BME280;10032;51.386;12.516;2024-01-25T04:51:26;100812.34;;;8.86;100.00
19748;BME280;10032;51.386;12.516;2024-01-25T04:53:52;100799.91;;;8.85;100.00
19748;BME280;10032;51.386;12.516;2024-01-25T04:56:17;100814.84;;;8.87;100.00
19748;BME280;10032;51.386;12.516;2024-01-25T04:58:42;100809.44;;;8.87;100.00
19748;BME280;10032;51.386;12.516;2024-01-25T05:01:08;100828.97;;;8.89;100.00
19748;BME280;10032;51.386;12.516;2024-01-25T05:03:33;100825.81;;;8.92;100.00
19748;BME280;10032;51.386;12.516;2024-01-25T05:05:59;100819.81;;;8.90;100.00
19748;BME280;10032;51.386;12.516;2024-01-25T05:08:24;100828.50;;;8.92;100.00
19748;BME280;10032;51.386;12.516;2024-01-25T05:10:49;100826.41;;;8.94;100.00
19748;BME280;10032;51.386;12.516;2024-01-25T05:13:15;100832.66;;;8.95;100.00
19748;BME280;10032;51.386;12.516;2024-01-25T05:15:40;100834.09;;;8.97;100.00
19748;BME280;10032;51.386;12.516;2024-01-25T05:18:06;100834.09;;;8.97;100.00
19748;BME280;10032;51.386;12.516;2024-01-25T05:20:32;100830.78;;;8.95;100.00
19748;BME280;10032;51.386;12.516;2024-01-25T05:22:58;100833.50;;;8.95;100.00
19748;BME280;10032;51.386;12.516;2024-01-25T05:25:24;100829.72;;;8.96;100.00
19748;BME280;10032;51.386;12.516;2024-01-25T05:27:51;100839.50;;;8.97;100.00
19748;BME280;10032;51.386;12.516;2024-01-25T05:30:17;100845.94;;;8.96;100.00
19748;BME280;10032;51.386;12.516;2024-01-25T05:32:42;100861.69;;;8.99;100.00
19748;BME280;10032;51.386;12.516;2024-01-25T05:35:08;100852.41;;;8.95;100.00
19748;BME280;10032;51.386;12.516;2024-01-25T05:37:33;100861.09;;;8.97;100.00
19748;BME280;10032;51.386;12.516;2024-01-25T05:39:59;100858.19;;;8.99;100.00
19748;BME280;10032;51.386;12.516;2024-01-25T05:42:24;100867.09;;;8.99;100.00
19748;BME280;10032;51.386;12.516;2024-01-25T05:44:50;100876.28;;;8.98;100.00
19748;BME280;10032;51.386;12.516;2024-01-25T05:47:16;100881.66;;;8.98;100.00
19748;BME280;10032;51.386;12.516;2024-01-25T05:49:41;100893.75;;;8.96;100.00
19748;BME280;10032;51.386;12.516;2024-01-25T05:52:06;100873.56;;;8.98;100.00
19748;BME280;10032;51.386;12.516;2024-01-25T05:54:32;100881.09;;;8.96;100.00
19748;BME280;10032;51.386;12.516;2024-01-25T05:56:57;100887.91;;;8.99;100.00
19748;BME280;10032;51.386;12.516;2024-01-25T05:59:23;100887.75;;;8.94;100.00
19748;BME280;10032;51.386;12.516;2024-01-25T06:01:48;100888.56;;;8.94;100.00
19748;BME280;10032;51.386;12.516;2024-01-25T06:04:13;100895.41;;;8.97;100.00
19748;BME280;10032;51.386;12.516;2024-01-25T06:06:39;100890.84;;;8.97;100.00
19748;BME280;10032;51.386;12.516;2024-01-25T06:09:04;100891.88;;;8.96;100.00
19748;BME280;10032;51.386;12.516;2024-01-25T06:11:30;100894.59;;;8.96;100.00
19748;BME280;10032;51.386;12.516;2024-01-25T06:13:56;100898.94;;;8.97;100.00
19748;BME280;10032;51.386;12.516;2024-01-25T06:16:22;100899.16;;;8.96;100.00
19748;BME280;10032;51.386;12.516;2024-01-25T06:18:47;100900.00;;;8.96;100.00
19748;BME280;10032;51.386;12.516;2024-01-25T06:21:13;100914.09;;;8.98;100.00
19748;BME280;10032;51.386;12.516;2024-01-25T06:23:38;100913.28;;;8.98;100.00
19748;BME280;10032;51.386;12.516;2024-01-25T06:26:04;100923.25;;;8.97;100.00
19748;BME280;10032;51.386;12.516;2024-01-25T06:28:29;100920.56;;;8.97;100.00
19748;BME280;10032;51.386;12.516;2024-01-25T06:30:55;100932.81;;;9.00;100.00
19748;BME280;10032;51.386;12.516;2024-01-25T06:33:20;100924.09;;;8.98;100.00
19748;BME280;10032;51.386;12.516;2024-01-25T06:35:45;100944.66;;;8.99;100.00
19748;BME280;10032;51.386;12.516;2024-01-25T06:38:12;100946.53;;;8.98;100.00
19748;BME280;10032;51.386;12.516;2024-01-25T06:40:37;100961.31;;;8.96;100.00
19748;BME280;10032;51.386;12.516;2024-01-25T06:43:03;100969.41;;;8.96;100.00
19748;BME280;10032;51.386;12.516;2024-01-25T06:45:29;100977.31;;;8.97;100.00
19748;BME280;10032;51.386;12.516;2024-01-25T06:47:54;100991.03;;;8.96;100.00
19748;BME280;10032;51.386;12.516;2024-01-25T06:50:20;100980.69;;;8.93;100.00
19748;BME280;10032;51.386;12.516;2024-01-25T06:52:45;100982.75;;;8.91;100.00
19748;BME280;10032;51.386;12.516;2024-01-25T06:55:10;100980.28;;;8.89;100.00
19748;BME280;10032;51.386;12.516;2024-01-25T06:57:38;100986.91;;;8.93;100.00
19748;BME280;10032;51.386;12.516;2024-01-25T07:00:04;100994.81;;;8.88;100.00
19748;BME280;10032;51.386;12.516;2024-01-25T07:02:30;100997.31;;;8.90;100.00
19748;BME280;10032;51.386;12.516;2024-01-25T07:04:55;101001.91;;;8.89;100.00
19748;BME280;10032;51.386;12.516;2024-01-25T07:07:21;101006.69;;;8.87;100.00
19748;BME280;10032;51.386;12.516;2024-01-25T07:09:46;101011.50;;;8.85;100.00
19748;BME280;10032;51.386;12.516;2024-01-25T07:12:12;101011.91;;;8.82;100.00
19748;BME280;10032;51.386;12.516;2024-01-25T07:14:37;101008.16;;;8.83;100.00
19748;BME280;10032;51.386;12.516;2024-01-25T07:17:03;101021.03;;;8.88;100.00
19748;BME280;10032;51.386;12.516;2024-01-25T07:19:29;101023.09;;;8.86;100.00
19748;BME280;10032;51.386;12.516;2024-01-25T07:21:54;101011.50;;;8.85;100.00
19748;BME280;10032;51.386;12.516;2024-01-25T07:24:19;101014.78;;;8.87;100.00
19748;BME280;10032;51.386;12.516;2024-01-25T07:26:45;101015.25;;;8.84;100.00
19748;BME280;10032;51.386;12.516;2024-01-25T07:29:10;101019.38;;;8.87;100.00
19748;BME280;10032;51.386;12.516;2024-01-25T07:31:35;101028.13;;;8.82;100.00
19748;BME280;10032;51.386;12.516;2024-01-25T07:34:01;101027.72;;;8.85;100.00
19748;BME280;10032;51.386;12.516;2024-01-25T07:36:26;101021.47;;;8.85;100.00
19748;BME280;10032;51.386;12.516;2024-01-25T07:38:51;101024.63;;;8.82;100.00
19748;BME280;10032;51.386;12.516;2024-01-25T07:41:17;101021.91;;;8.82;100.00
19748;BME280;10032;51.386;12.516;2024-01-25T07:43:42;101017.50;;;8.87;100.00
19748;BME280;10032;51.386;12.516;2024-01-25T07:46:08;101021.84;;;8.88;100.00
19748;BME280;10032;51.386;12.516;2024-01-25T07:48:34;101025.41;;;8.89;100.00
19748;BME280;10032;51.386;12.516;2024-01-25T07:50:59;101021.03;;;8.88;100.00
19748;BME280;10032;51.386;12.516;2024-01-25T07:53:24;101028.31;;;8.87;100.00
19748;BME280;10032;51.386;12.516;2024-01-25T07:55:50;101022.47;;;8.90;100.00
19748;BME280;10032;51.386;12.516;2024-01-25T07:58:15;101019.78;;;8.90;100.00
19748;BME280;10032;51.386;12.516;2024-01-25T08:00:41;101016.63;;;8.93;100.00
19748;BME280;10032;51.386;12.516;2024-01-25T08:03:07;101020.97;;;8.94;100.00
19748;BME280;10032;51.386;12.516;2024-01-25T08:05:33;101027.63;;;8.92;100.00
19748;BME280;10032;51.386;12.516;2024-01-25T08:07:58;101018.50;;;8.93;100.00
19748;BME280;10032;51.386;12.516;2024-01-25T08:10:24;101023.28;;;8.91;100.00
19748;BME280;10032;51.386;12.516;2024-01-25T08:12:49;101037.63;;;8.91;100.00
19748;BME280;10032;51.386;12.516;2024-01-25T08:15:14;101037.44;;;8.93;100.00
19748;BME280;10032;51.386;12.516;2024-01-25T08:17:40;101062.56;;;8.93;100.00
19748;BME280;10032;51.386;12.516;2024-01-25T08:20:06;101043.66;;;8.93;100.00
19748;BME280;10032;51.386;12.516;2024-01-25T08:22:32;101046.34;;;8.93;100.00
19748;BME280;10032;51.386;12.516;2024-01-25T08:24:57;101045.94;;;8.96;100.00
19748;BME280;10032;51.386;12.516;2024-01-25T08:27:23;101050.28;;;8.97;100.00
19748;BME280;10032;51.386;12.516;2024-01-25T08:29:49;101055.25;;;9.00;100.00
19748;BME280;10032;51.386;12.516;2024-01-25T08:32:14;101056.06;;;9.01;100.00
19748;BME280;10032;51.386;12.516;2024-01-25T08:34:40;101056.91;;;9.01;100.00
19748;BME280;10032;51.386;12.516;2024-01-25T08:37:05;101070.81;;;9.05;100.00
19748;BME280;10032;51.386;12.516;2024-01-25T08:39:30;101078.72;;;9.06;100.00
19748;BME280;10032;51.386;12.516;2024-01-25T08:41:56;101084.13;;;9.06;100.00
19748;BME280;10032;51.386;12.516;2024-01-25T08:44:25;101080.38;;;9.07;100.00
19748;BME280;10032;51.386;12.516;2024-01-25T08:46:51;101075.19;;;9.06;100.00
19748;BME280;10032;51.386;12.516;2024-01-25T08:49:16;101063.09;;;9.08;100.00
19748;BME280;10032;51.386;12.516;2024-01-25T08:51:42;101064.38;;;9.06;100.00
19748;BME280;10032;51.386;12.516;2024-01-25T08:54:07;101077.50;;;9.02;100.00
19748;BME280;10032;51.386;12.516;2024-01-25T08:56:34;101081.06;;;8.96;100.00
19748;BME280;10032;51.386;12.516;2024-01-25T08:58:59;101081.69;;;8.92;100.00
19748;BME280;10032;51.386;12.516;2024-01-25T09:01:25;101083.38;;;8.93;100.00
19748;BME280;10032;51.386;12.516;2024-01-25T09:03:50;101082.28;;;9.00;100.00
19748;BME280;10032;51.386;12.516;2024-01-25T09:06:16;101088.31;;;9.02;100.00
19748;BME280;10032;51.386;12.516;2024-01-25T09:08:42;101089.53;;;9.06;100.00
19748;BME280;10032;51.386;12.516;2024-01-25T09:11:07;101099.47;;;9.12;100.00
19748;BME280;10032;51.386;12.516;2024-01-25T09:13:33;101098.81;;;9.17;100.00
19748;BME280;10032;51.386;12.516;2024-01-25T09:15:58;101097.72;;;9.24;100.00
19748;BME280;10032;51.386;12.516;2024-01-25T09:18:24;101105.59;;;9.32;100.00
19748;BME280;10032;51.386;12.516;2024-01-25T09:20:49;101103.66;;;9.39;100.00
19748;BME280;10032;51.386;12.516;2024-01-25T09:23:14;101106.53;;;9.44;100.00
19748;BME280;10032;51.386;12.516;2024-01-25T09:25:45;101108.81;;;9.47;100.00
19748;BME280;10032;51.386;12.516;2024-01-25T09:28:10;101105.25;;;9.53;100.00
19748;BME280;10032;51.386;12.516;2024-01-25T09:30:40;101112.91;;;9.56;100.00
19748;BME280;10032;51.386;12.516;2024-01-25T09:33:06;101112.91;;;9.56;100.00
19748;BME280;10032;51.386;12.516;2024-01-25T09:35:31;101116.84;;;9.60;100.00
19748;BME280;10032;51.386;12.516;2024-01-25T09:37:57;101118.28;;;9.63;100.00
19748;BME280;10032;51.386;12.516;2024-01-25T09:40:22;101124.94;;;9.60;100.00
19748;BME280;10032;51.386;12.516;2024-01-25T09:42:48;101124.34;;;9.58;100.00
19748;BME280;10032;51.386;12.516;2024-01-25T09:45:17;101122.03;;;9.62;100.00
19748;BME280;10032;51.386;12.516;2024-01-25T09:47:44;101115.94;;;9.66;100.00
19748;BME280;10032;51.386;12.516;2024-01-25T09:50:10;101126.78;;;9.66;100.00
19748;BME280;10032;51.386;12.516;2024-01-25T09:52:35;101135.06;;;9.71;100.00
19748;BME280;10032;51.386;12.516;2024-01-25T09:55:04;101139.38;;;9.79;100.00
19748;BME280;10032;51.386;12.516;2024-01-25T09:57:35;101138.53;;;9.78;100.00
19748;BME280;10032;51.386;12.516;2024-01-25T10:00:03;101148.53;;;9.78;100.00
19748;BME280;10032;51.386;12.516;2024-01-25T10:02:29;101154.38;;;9.75;100.00
19748;BME280;10032;51.386;12.516;2024-01-25T10:04:54;101165.22;;;9.75;100.00
19748;BME280;10032;51.386;12.516;2024-01-25T10:07:39;101160.00;;;9.73;100.00
19748;BME280;10032;51.386;12.516;2024-01-25T10:10:05;101161.06;;;9.72;100.00
19748;BME280;10032;51.386;12.516;2024-01-25T10:12:31;101170.25;;;9.71;100.00
19748;BME280;10032;51.386;12.516;2024-01-25T10:14:57;101160.25;;;9.72;100.00
19748;BME280;10032;51.386;12.516;2024-01-25T10:17:22;101167.53;;;9.71;100.00
19748;BME280;10032;51.386;12.516;2024-01-25T10:19:47;101158.56;;;9.71;100.00
19748;BME280;10032;51.386;12.516;2024-01-25T10:22:13;101166.47;;;9.72;100.00
19748;BME280;10032;51.386;12.516;2024-01-25T10:24:40;101168.09;;;9.80;100.00
19748;BME280;10032;51.386;12.516;2024-01-25T10:27:07;101158.69;;;9.82;100.00
19748;BME280;10032;51.386;12.516;2024-01-25T10:29:34;101165.00;;;10.01;100.00
19748;BME280;10032;51.386;12.516;2024-01-25T10:32:00;101155.22;;;10.06;100.00
19748;BME280;10032;51.386;12.516;2024-01-25T10:34:26;101160.66;;;10.24;100.00
19748;BME280;10032;51.386;12.516;2024-01-25T10:36:52;101150.59;;;10.31;100.00
19748;BME280;10032;51.386;12.516;2024-01-25T10:39:18;101150.31;;;10.39;100.00
19748;BME280;10032;51.386;12.516;2024-01-25T10:41:47;101137.81;;;10.56;100.00
19748;BME280;10032;51.386;12.516;2024-01-25T10:44:17;101149.19;;;10.65;100.00
19748;BME280;10032;51.386;12.516;2024-01-25T10:46:47;101149.41;;;10.63;100.00
19748;BME280;10032;51.386;12.516;2024-01-25T10:49:13;101154.09;;;10.56;100.00
19748;BME280;10032;51.386;12.516;2024-01-25T10:51:40;101146.78;;;10.57;100.00
19748;BME280;10032;51.386;12.516;2024-01-25T10:54:07;101145.06;;;10.44;100.00
19748;BME280;10032;51.386;12.516;2024-01-25T10:56:34;101162.22;;;10.38;100.00
19748;BME280;10032;51.386;12.516;2024-01-25T10:59:00;101157.00;;;10.37;100.00
19748;BME280;10032;51.386;12.516;2024-01-25T11:01:27;101162.84;;;10.34;100.00
19748;BME280;10032;51.386;12.516;2024-01-25T11:03:53;101158.13;;;10.29;100.00
19748;BME280;10032;51.386;12.516;2024-01-25T11:06:21;101153.75;;;10.28;100.00
19748;BME280;10032;51.386;12.516;2024-01-25T11:08:50;101152.09;;;10.27;100.00
19748;BME280;10032;51.386;12.516;2024-01-25T11:11:15;101154.97;;;10.32;100.00
19748;BME280;10032;51.386;12.516;2024-01-25T11:13:43;101144.31;;;10.37;100.00
19748;BME280;10032;51.386;12.516;2024-01-25T11:16:17;101143.84;;;10.40;100.00
19748;BME280;10032;51.386;12.516;2024-01-25T11:18:54;101134.31;;;10.56;100.00
19748;BME280;10032;51.386;12.516;2024-01-25T11:21:37;101134.06;;;10.57;100.00
19748;BME280;10032;51.386;12.516;2024-01-25T11:24:03;101133.75;;;10.47;100.00
19748;BME280;10032;51.386;12.516;2024-01-25T11:26:31;101125.78;;;10.52;100.00
19748;BME280;10032;51.386;12.516;2024-01-25T11:28:57;101128.06;;;10.55;100.00
19748;BME280;10032;51.386;12.516;2024-01-25T11:31:26;101127.84;;;10.57;100.00
19748;BME280;10032;51.386;12.516;2024-01-25T11:33:56;101135.66;;;10.47;100.00
19748;BME280;10032;51.386;12.516;2024-01-25T11:36:21;101131.78;;;10.36;100.00
19748;BME280;10032;51.386;12.516;2024-01-25T11:38:47;101132.78;;;10.24;100.00
19748;BME280;10032;51.386;12.516;2024-01-25T11:41:13;101134.47;;;10.18;100.00
19748;BME280;10032;51.386;12.516;2024-01-25T11:43:38;101121.84;;;10.12;100.00
19748;BME280;10032;51.386;12.516;2024-01-25T11:46:04;101125.19;;;10.08;100.00
19748;BME280;10032;51.386;12.516;2024-01-25T11:48:29;101125.81;;;10.10;100.00
19748;BME280;10032;51.386;12.516;2024-01-25T11:50:55;101124.38;;;10.07;100.00
19748;BME280;10032;51.386;12.516;2024-01-25T11:53:20;101125.81;;;10.10;100.00
19748;BME280;10032;51.386;12.516;2024-01-25T11:55:46;101122.47;;;10.08;100.00
19748;BME280;10032;51.386;12.516;2024-01-25T11:58:11;101131.44;;;10.08;100.00
19748;BME280;10032;51.386;12.516;2024-01-25T12:00:37;101135.00;;;10.09;100.00
19748;BME280;10032;51.386;12.516;2024-01-25T12:03:03;101130.44;;;10.03;100.00
19748;BME280;10032;51.386;12.516;2024-01-25T12:05:29;101133.34;;;10.01;100.00
19748;BME280;10032;51.386;12.516;2024-01-25T12:07:54;101136.97;;;9.95;100.00
19748;BME280;10032;51.386;12.516;2024-01-25T12:10:19;101140.69;;;9.94;100.00
19748;BME280;10032;51.386;12.516;2024-01-25T12:12:45;101142.81;;;9.92;100.00
19748;BME280;10032;51.386;12.516;2024-01-25T12:15:10;101146.56;;;9.91;100.00
19748;BME280;10032;51.386;12.516;2024-01-25T12:17:36;101139.72;;;9.89;100.00
19748;BME280;10032;51.386;12.516;2024-01-25T12:20:02;101146.72;;;9.96;100.00
19748;BME280;10032;51.386;12.516;2024-01-25T12:22:28;101141.31;;;9.96;100.00
19748;BME280;10032;51.386;12.516;2024-01-25T12:24:55;101151.09;;;9.97;100.00
19748;BME280;10032;51.386;12.516;2024-01-25T12:27:21;101142.97;;;9.97;100.00
19748;BME280;10032;51.386;12.516;2024-01-25T12:29:50;101145.84;;;10.02;100.00
19748;BME280;10032;51.386;12.516;2024-01-25T12:32:16;101137.72;;;10.02;100.00